Florencia — IBPD — position and weather

sailwx.info

Track history (hours):
 
Tides and Currents Weather Stations Pressure Air Temp Water Temp Dewpoint Dewpoint Depression Visibility Wind Speed Wind Dir Waves Ship Positions

Florencia

Last reported at 2017-Dec-11 07:08 UTC. Time now 2017-Dec-11 13:21 UTC.
Position N 40°50' E 014°16'.

Length 186 m; draft 6.3 m.

Type: Ship. MMSI: 247105900.

Date/timePositionNaut miles runAvg speedWind from/ knotsBaromVisibWave heightAir tempDewpointWater temp
2017-Dec-11 07:08N 40°50' E 014°16'8918.5
2017-Dec-11 02:20N 39°28' E 014°59'3721.2
2017-Dec-11 00:35N 38°54' E 015°20'321.4
2017-Dec-11 00:25N 38°51' E 015°22'920.9
2017-Dec-11 00:00N 38°44' E 015°27'1121.4
2017-Dec-10 23:30N 38°34' E 015°32'1021.1
2017-Dec-10 23:00N 38°25' E 015°39'917.2
2017-Dec-10 22:28N 38°15' E 015°40'818.6
2017-Dec-10 22:00N 38°08' E 015°36'1321.2
2017-Dec-10 21:23N 37°56' E 015°29'1421.6
2017-Dec-10 20:45N 37°43' E 015°22'2 0.1
2017-Dec-10 06:36N 37°42' E 015°20'221.9
2017-Dec-10 06:29N 37°44' E 015°21'1021.9
2017-Dec-10 06:00N 37°54' E 015°27'1121.6
2017-Dec-10 05:30N 38°04' E 015°32'1121.5
2017-Dec-10 05:00N 38°14' E 015°36'816.1
2017-Dec-10 04:30N 38°22' E 015°38'1121.3
2017-Dec-10 04:00N 38°32' E 015°32'1121.1
2017-Dec-10 03:30N 38°41' E 015°26'1120.9
2017-Dec-10 02:59N 38°51' E 015°21'3320.8
2017-Dec-10 01:23N 39°21' E 015°02'2620.8
2017-Dec-10 00:07N 39°45' E 014°47'721.0
2017-Dec-09 23:46N 39°52' E 014°43'6216.1
2017-Dec-09 19:53N 40°50' E 014°16'0 0.0
2017-Dec-09 19:23N 40°50' E 014°16'0 0.0
2017-Dec-09 18:53N 40°50' E 014°16'0 0.0
2017-Dec-09 18:23N 40°50' E 014°16'0 0.0
2017-Dec-09 17:53N 40°50' E 014°16'0 0.0
2017-Dec-09 17:23N 40°50' E 014°16'0 0.0
2017-Dec-09 16:53N 40°50' E 014°16'0 0.0
2017-Dec-09 16:23N 40°50' E 014°16'0 0.0
2017-Dec-09 15:59N 40°50' E 014°16'0 0.0
2017-Dec-09 15:29N 40°50' E 014°16'0 0.0
2017-Dec-09 14:59N 40°50' E 014°16'0 0.0
2017-Dec-09 14:29N 40°50' E 014°16'0 0.0
2017-Dec-09 13:47N 40°50' E 014°16'0 0.0
2017-Dec-09 13:17N 40°50' E 014°16'0 0.0
2017-Dec-09 12:59N 40°50' E 014°16'0 0.0
2017-Dec-09 12:29N 40°50' E 014°16'0 0.0
2017-Dec-09 11:59N 40°50' E 014°16'0 0.0
2017-Dec-09 11:29N 40°50' E 014°16'0 0.0
2017-Dec-09 10:47N 40°50' E 014°16'0 0.0
2017-Dec-09 10:29N 40°50' E 014°16'0 0.0
2017-Dec-09 09:59N 40°50' E 014°16'0 0.0
2017-Dec-09 09:17N 40°50' E 014°16'0 0.0
2017-Dec-09 08:47N 40°50' E 014°16'0 0.0
2017-Dec-09 08:23N 40°50' E 014°16'0 0.0
2017-Dec-09 07:53N 40°50' E 014°16'0 0.0
2017-Dec-09 07:23N 40°50' E 014°16'3 6.7
2017-Dec-09 07:00N 40°48' E 014°17'1020.1
2017-Dec-09 06:30N 40°38' E 014°17'4620.3
2017-Dec-09 04:14N 39°56' E 014°41'3220.4
2017-Dec-09 02:41N 39°27' E 014°59'520.8
2017-Dec-09 02:27N 39°23' E 015°02'3521.1
2017-Dec-09 00:47N 38°51' E 015°22'621.6
2017-Dec-09 00:29N 38°46' E 015°25'1021.7
2017-Dec-09 00:00N 38°36' E 015°31'1121.5
2017-Dec-08 23:30N 38°27' E 015°37'1121.1
2017-Dec-08 22:59N 38°17' E 015°43'919.6
2017-Dec-08 22:30N 38°09' E 015°36'1221.2
2017-Dec-08 21:55N 37°58' E 015°30'1421.2
2017-Dec-08 21:15N 37°45' E 015°22'8 0.5
2017-Dec-08 06:15N 37°52' E 015°27'921.6
2017-Dec-08 05:50N 38°00' E 015°31'721.8
2017-Dec-08 05:30N 38°07' E 015°35'1120.2
2017-Dec-08 04:57N 38°17' E 015°41'921.0
2017-Dec-08 04:30N 38°26' E 015°36'1121.8
2017-Dec-08 04:00N 38°36' E 015°30'1021.1
2017-Dec-08 03:30N 38°45' E 015°24'4021.0
2017-Dec-08 01:35N 39°21' E 015°02'8220.7
2017-Dec-07 21:39N 40°35' E 014°17'321.8
2017-Dec-07 21:30N 40°39' E 014°17'1121.3
2017-Dec-07 21:00N 40°49' E 014°17'1 0.1
2017-Dec-07 09:55N 40°50' E 014°16'4 9.2
2017-Dec-07 09:31N 40°47' E 014°17'8721.5
2017-Dec-07 05:27N 39°26' E 014°60'2621.4
2017-Dec-07 04:14N 39°03' E 015°15'721.1
2017-Dec-07 03:54N 38°56' E 015°19'821.0
2017-Dec-07 03:30N 38°49' E 015°23'1121.3
2017-Dec-07 03:00N 38°39' E 015°29'1021.2
2017-Dec-07 02:31N 38°30' E 015°35'1020.8
2017-Dec-07 02:01N 38°21' E 015°41'816.1
2017-Dec-07 01:31N 38°13' E 015°37'1120.7
2017-Dec-07 01:00N 38°03' E 015°33'1121.6
2017-Dec-07 00:30N 37°53' E 015°27'1121.0
2017-Dec-06 23:59N 37°43' E 015°22'  
2017-Dec-04 05:06N 37°41' E 015°20'221.2
2017-Dec-04 05:00N 37°43' E 015°22'1021.0
2017-Dec-04 04:30N 37°53' E 015°27'1121.4
2017-Dec-04 03:59N 38°03' E 015°32'1019.8
2017-Dec-04 03:30N 38°12' E 015°36'815.7
2017-Dec-04 03:01N 38°19' E 015°40'1121.0
2017-Dec-04 02:30N 38°29' E 015°34'1020.3
2017-Dec-04 02:00N 38°38' E 015°28'1020.1
2017-Dec-04 01:30N 38°47' E 015°23'3720.2
2017-Dec-03 23:39N 39°21' E 015°02'320.0
2017-Dec-03 23:29N 39°24' E 015°00'6119.7
2017-Dec-03 20:25N 40°18' E 014°26'1019.5
2017-Dec-03 19:53N 40°28' E 014°20'819.6
2017-Dec-03 19:30N 40°35' E 014°17'1020.0
2017-Dec-03 19:00N 40°45' E 014°17'610.1
2017-Dec-03 18:26N 40°50' E 014°16'0 0.0
2017-Dec-03 17:56N 40°50' E 014°16'0 0.0
2017-Dec-03 17:29N 40°50' E 014°16'0 0.0
2017-Dec-03 16:59N 40°50' E 014°16'0 0.0
2017-Dec-03 16:29N 40°50' E 014°16'0 0.0
2017-Dec-03 15:59N 40°50' E 014°16'0 0.0
2017-Dec-03 15:29N 40°50' E 014°16'0 0.0
2017-Dec-03 14:47N 40°50' E 014°16'0 0.0
2017-Dec-03 14:29N 40°50' E 014°16'0 0.0
2017-Dec-03 13:59N 40°50' E 014°16'0 0.0
2017-Dec-03 12:47N 40°50' E 014°16'0 0.0
2017-Dec-03 12:20N 40°50' E 014°16'0 0.0
2017-Dec-03 11:50N 40°50' E 014°16'0 0.0
2017-Dec-03 11:29N 40°50' E 014°16'0 0.0
2017-Dec-03 10:50N 40°50' E 014°16'0 0.5
2017-Dec-03 10:25N 40°50' E 014°16'717.0
2017-Dec-03 10:00N 40°43' E 014°17'1720.2
2017-Dec-03 09:09N 40°26' E 014°22'320.8
2017-Dec-03 08:59N 40°23' E 014°24'3020.6
2017-Dec-03 07:31N 39°56' E 014°41'1220.8
2017-Dec-03 06:57N 39°45' E 014°48'2020.3
2017-Dec-03 05:59N 39°28' E 014°59'3719.6
2017-Dec-03 04:05N 38°55' E 015°20'319.0
2017-Dec-03 03:57N 38°52' E 015°22'818.8
2017-Dec-03 03:30N 38°45' E 015°27'1019.1
2017-Dec-03 03:00N 38°36' E 015°32'1020.0
2017-Dec-03 02:31N 38°27' E 015°37'1020.9
2017-Dec-03 02:01N 38°18' E 015°43'919.0
2017-Dec-03 01:31N 38°09' E 015°37'1019.2
2017-Dec-03 01:01N 38°01' E 015°32'1921.2
2017-Dec-03 00:06N 37°43' E 015°22'221.7
2017-Dec-03 00:00N 37°41' E 015°21'13 0.7
2017-Dec-02 06:09N 37°53' E 015°26'821.5
2017-Dec-02 05:48N 38°00' E 015°30'721.2
2017-Dec-02 05:30N 38°06' E 015°34'1019.1
2017-Dec-02 05:00N 38°15' E 015°38'918.5
2017-Dec-02 04:30N 38°24' E 015°37'1121.4
2017-Dec-02 04:00N 38°34' E 015°32'1020.8
2017-Dec-02 03:30N 38°43' E 015°26'4220.7
2017-Dec-02 01:27N 39°21' E 015°02'9619.2
2017-Dec-01 20:29N 40°50' E 014°16'0 0.0
2017-Dec-01 09:25N 40°50' E 014°16'0 0.0
2017-Dec-01 07:29N 40°50' E 014°16'  
Track history (hours):
 
Tides and Currents Weather Stations Pressure Air Temp Water Temp Dewpoint Dewpoint Depression Visibility Wind Speed Wind Dir Waves Ship Positions

Florencia

Last reported at 2017-Dec-11 07:08 UTC. Time now 2017-Dec-11 13:21 UTC.
Position N 40°50' E 014°16'.

Length 186 m; draft 6.3 m.

Type: Ship. MMSI: 247105900.

Date/timePositionNaut miles runAvg speedWind from/ knotsBaromVisibWave heightAir tempDewpointWater temp
2017-Dec-11 07:08N 40°50' E 014°16'8918.5
2017-Dec-11 02:20N 39°28' E 014°59'3721.2
2017-Dec-11 00:35N 38°54' E 015°20'321.4
2017-Dec-11 00:25N 38°51' E 015°22'920.9
2017-Dec-11 00:00N 38°44' E 015°27'1121.4
2017-Dec-10 23:30N 38°34' E 015°32'1021.1
2017-Dec-10 23:00N 38°25' E 015°39'917.2
2017-Dec-10 22:28N 38°15' E 015°40'818.6
2017-Dec-10 22:00N 38°08' E 015°36'1321.2
2017-Dec-10 21:23N 37°56' E 015°29'1421.6
2017-Dec-10 20:45N 37°43' E 015°22'2 0.1
2017-Dec-10 06:36N 37°42' E 015°20'221.9
2017-Dec-10 06:29N 37°44' E 015°21'1021.9
2017-Dec-10 06:00N 37°54' E 015°27'1121.6
2017-Dec-10 05:30N 38°04' E 015°32'1121.5
2017-Dec-10 05:00N 38°14' E 015°36'816.1
2017-Dec-10 04:30N 38°22' E 015°38'1121.3
2017-Dec-10 04:00N 38°32' E 015°32'1121.1
2017-Dec-10 03:30N 38°41' E 015°26'1120.9
2017-Dec-10 02:59N 38°51' E 015°21'3320.8
2017-Dec-10 01:23N 39°21' E 015°02'2620.8
2017-Dec-10 00:07N 39°45' E 014°47'721.0
2017-Dec-09 23:46N 39°52' E 014°43'6216.1
2017-Dec-09 19:53N 40°50' E 014°16'0 0.0
2017-Dec-09 19:23N 40°50' E 014°16'0 0.0
2017-Dec-09 18:53N 40°50' E 014°16'0 0.0
2017-Dec-09 18:23N 40°50' E 014°16'0 0.0
2017-Dec-09 17:53N 40°50' E 014°16'0 0.0
2017-Dec-09 17:23N 40°50' E 014°16'0 0.0
2017-Dec-09 16:53N 40°50' E 014°16'0 0.0
2017-Dec-09 16:23N 40°50' E 014°16'0 0.0
2017-Dec-09 15:59N 40°50' E 014°16'0 0.0
2017-Dec-09 15:29N 40°50' E 014°16'0 0.0
2017-Dec-09 14:59N 40°50' E 014°16'0 0.0
2017-Dec-09 14:29N 40°50' E 014°16'0 0.0
2017-Dec-09 13:47N 40°50' E 014°16'0 0.0
2017-Dec-09 13:17N 40°50' E 014°16'0 0.0
2017-Dec-09 12:59N 40°50' E 014°16'0 0.0
2017-Dec-09 12:29N 40°50' E 014°16'0 0.0
2017-Dec-09 11:59N 40°50' E 014°16'0 0.0
2017-Dec-09 11:29N 40°50' E 014°16'0 0.0
2017-Dec-09 10:47N 40°50' E 014°16'0 0.0
2017-Dec-09 10:29N 40°50' E 014°16'0 0.0
2017-Dec-09 09:59N 40°50' E 014°16'0 0.0
2017-Dec-09 09:17N 40°50' E 014°16'0 0.0
2017-Dec-09 08:47N 40°50' E 014°16'0 0.0
2017-Dec-09 08:23N 40°50' E 014°16'0 0.0
2017-Dec-09 07:53N 40°50' E 014°16'0 0.0
2017-Dec-09 07:23N 40°50' E 014°16'3 6.7
2017-Dec-09 07:00N 40°48' E 014°17'1020.1
2017-Dec-09 06:30N 40°38' E 014°17'4620.3
2017-Dec-09 04:14N 39°56' E 014°41'3220.4
2017-Dec-09 02:41N 39°27' E 014°59'520.8
2017-Dec-09 02:27N 39°23' E 015°02'3521.1
2017-Dec-09 00:47N 38°51' E 015°22'621.6
2017-Dec-09 00:29N 38°46' E 015°25'1021.7
2017-Dec-09 00:00N 38°36' E 015°31'1121.5
2017-Dec-08 23:30N 38°27' E 015°37'1121.1
2017-Dec-08 22:59N 38°17' E 015°43'919.6
2017-Dec-08 22:30N 38°09' E 015°36'1221.2
2017-Dec-08 21:55N 37°58' E 015°30'1421.2
2017-Dec-08 21:15N 37°45' E 015°22'8 0.5
2017-Dec-08 06:15N 37°52' E 015°27'921.6
2017-Dec-08 05:50N 38°00' E 015°31'721.8
2017-Dec-08 05:30N 38°07' E 015°35'1120.2
2017-Dec-08 04:57N 38°17' E 015°41'921.0
2017-Dec-08 04:30N 38°26' E 015°36'1121.8
2017-Dec-08 04:00N 38°36' E 015°30'1021.1
2017-Dec-08 03:30N 38°45' E 015°24'4021.0
2017-Dec-08 01:35N 39°21' E 015°02'8220.7
2017-Dec-07 21:39N 40°35' E 014°17'321.8
2017-Dec-07 21:30N 40°39' E 014°17'1121.3
2017-Dec-07 21:00N 40°49' E 014°17'1 0.1
2017-Dec-07 09:55N 40°50' E 014°16'4 9.2
2017-Dec-07 09:31N 40°47' E 014°17'8721.5
2017-Dec-07 05:27N 39°26' E 014°60'2621.4
2017-Dec-07 04:14N 39°03' E 015°15'721.1
2017-Dec-07 03:54N 38°56' E 015°19'821.0
2017-Dec-07 03:30N 38°49' E 015°23'1121.3
2017-Dec-07 03:00N 38°39' E 015°29'1021.2
2017-Dec-07 02:31N 38°30' E 015°35'1020.8
2017-Dec-07 02:01N 38°21' E 015°41'816.1
2017-Dec-07 01:31N 38°13' E 015°37'1120.7
2017-Dec-07 01:00N 38°03' E 015°33'1121.6
2017-Dec-07 00:30N 37°53' E 015°27'1121.0
2017-Dec-06 23:59N 37°43' E 015°22'  
2017-Dec-04 05:06N 37°41' E 015°20'221.2
2017-Dec-04 05:00N 37°43' E 015°22'1021.0
2017-Dec-04 04:30N 37°53' E 015°27'1121.4
2017-Dec-04 03:59N 38°03' E 015°32'1019.8
2017-Dec-04 03:30N 38°12' E 015°36'815.7
2017-Dec-04 03:01N 38°19' E 015°40'1121.0
2017-Dec-04 02:30N 38°29' E 015°34'1020.3
2017-Dec-04 02:00N 38°38' E 015°28'1020.1
2017-Dec-04 01:30N 38°47' E 015°23'3720.2
2017-Dec-03 23:39N 39°21' E 015°02'320.0
2017-Dec-03 23:29N 39°24' E 015°00'6119.7
2017-Dec-03 20:25N 40°18' E 014°26'1019.5
2017-Dec-03 19:53N 40°28' E 014°20'819.6
2017-Dec-03 19:30N 40°35' E 014°17'1020.0
2017-Dec-03 19:00N 40°45' E 014°17'610.1
2017-Dec-03 18:26N 40°50' E 014°16'0 0.0
2017-Dec-03 17:56N 40°50' E 014°16'0 0.0
2017-Dec-03 17:29N 40°50' E 014°16'0 0.0
2017-Dec-03 16:59N 40°50' E 014°16'0 0.0
2017-Dec-03 16:29N 40°50' E 014°16'0 0.0
2017-Dec-03 15:59N 40°50' E 014°16'0 0.0
2017-Dec-03 15:29N 40°50' E 014°16'0 0.0
2017-Dec-03 14:47N 40°50' E 014°16'0 0.0
2017-Dec-03 14:29N 40°50' E 014°16'0 0.0
2017-Dec-03 13:59N 40°50' E 014°16'0 0.0
2017-Dec-03 12:47N 40°50' E 014°16'0 0.0
2017-Dec-03 12:20N 40°50' E 014°16'0 0.0
2017-Dec-03 11:50N 40°50' E 014°16'0 0.0
2017-Dec-03 11:29N 40°50' E 014°16'0 0.0
2017-Dec-03 10:50N 40°50' E 014°16'0 0.5
2017-Dec-03 10:25N 40°50' E 014°16'717.0
2017-Dec-03 10:00N 40°43' E 014°17'1720.2
2017-Dec-03 09:09N 40°26' E 014°22'320.8
2017-Dec-03 08:59N 40°23' E 014°24'3020.6
2017-Dec-03 07:31N 39°56' E 014°41'1220.8
2017-Dec-03 06:57N 39°45' E 014°48'2020.3
2017-Dec-03 05:59N 39°28' E 014°59'3719.6
2017-Dec-03 04:05N 38°55' E 015°20'319.0
2017-Dec-03 03:57N 38°52' E 015°22'818.8
2017-Dec-03 03:30N 38°45' E 015°27'1019.1
2017-Dec-03 03:00N 38°36' E 015°32'1020.0
2017-Dec-03 02:31N 38°27' E 015°37'1020.9
2017-Dec-03 02:01N 38°18' E 015°43'919.0
2017-Dec-03 01:31N 38°09' E 015°37'1019.2
2017-Dec-03 01:01N 38°01' E 015°32'1921.2
2017-Dec-03 00:06N 37°43' E 015°22'221.7
2017-Dec-03 00:00N 37°41' E 015°21'13 0.7
2017-Dec-02 06:09N 37°53' E 015°26'821.5
2017-Dec-02 05:48N 38°00' E 015°30'721.2
2017-Dec-02 05:30N 38°06' E 015°34'1019.1
2017-Dec-02 05:00N 38°15' E 015°38'918.5
2017-Dec-02 04:30N 38°24' E 015°37'1121.4
2017-Dec-02 04:00N 38°34' E 015°32'1020.8
2017-Dec-02 03:30N 38°43' E 015°26'4220.7
2017-Dec-02 01:27N 39°21' E 015°02'9619.2
2017-Dec-01 20:29N 40°50' E 014°16'0 0.0
2017-Dec-01 09:25N 40°50' E 014°16'0 0.0
2017-Dec-01 07:29N 40°50' E 014°16'  

Dump ship's entire track history